sensor_id;sensor_type;location;lat;lon;timestamp;P1;durP1;ratioP1;P2;durP2;ratioP2
39276;SDS011;63149;48.086;-1.606;2023-04-25T05:01:13;9.70;;;6.28;;
39276;SDS011;63149;48.086;-1.606;2023-04-25T05:03:42;11.48;;;6.82;;
39276;SDS011;63149;48.086;-1.606;2023-04-25T05:06:09;11.38;;;6.03;;
39276;SDS011;63149;48.086;-1.606;2023-04-25T05:08:36;9.40;;;5.80;;
39276;SDS011;63149;48.086;-1.606;2023-04-25T05:11:03;13.45;;;6.72;;
39276;SDS011;63149;48.086;-1.606;2023-04-25T05:13:31;10.13;;;6.15;;
39276;SDS011;63149;48.086;-1.606;2023-04-25T05:15:58;11.80;;;6.15;;
39276;SDS011;63149;48.086;-1.606;2023-04-25T05:18:27;15.82;;;6.70;;
39276;SDS011;63149;48.086;-1.606;2023-04-25T05:20:54;11.70;;;6.70;;
39276;SDS011;63149;48.086;-1.606;2023-04-25T05:23:22;13.68;;;5.65;;
39276;SDS011;63149;48.086;-1.606;2023-04-25T05:25:49;10.90;;;6.20;;
39276;SDS011;63149;48.086;-1.606;2023-04-25T05:28:16;15.75;;;6.50;;
39276;SDS011;63149;48.086;-1.606;2023-04-25T05:30:43;13.32;;;6.55;;
39276;SDS011;63149;48.086;-1.606;2023-04-25T05:33:11;20.27;;;7.55;;
39276;SDS011;63149;48.086;-1.606;2023-04-25T05:35:39;12.70;;;6.93;;
39276;SDS011;63149;48.086;-1.606;2023-04-25T05:38:06;12.55;;;5.40;;
39276;SDS011;63149;48.086;-1.606;2023-04-25T05:40:34;10.90;;;5.75;;
39276;SDS011;63149;48.086;-1.606;2023-04-25T05:43:01;12.30;;;6.60;;
39276;SDS011;63149;48.086;-1.606;2023-04-25T05:45:28;7.68;;;5.32;;
39276;SDS011;63149;48.086;-1.606;2023-04-25T05:47:56;11.20;;;6.18;;
39276;SDS011;63149;48.086;-1.606;2023-04-25T05:50:23;15.35;;;7.32;;
39276;SDS011;63149;48.086;-1.606;2023-04-25T05:52:52;11.35;;;6.25;;
39276;SDS011;63149;48.086;-1.606;2023-04-25T05:55:19;11.23;;;6.20;;
39276;SDS011;63149;48.086;-1.606;2023-04-25T05:57:46;15.35;;;7.63;;
39276;SDS011;63149;48.086;-1.606;2023-04-25T06:00:14;9.65;;;6.18;;
39276;SDS011;63149;48.086;-1.606;2023-04-25T06:02:41;11.98;;;6.80;;
39276;SDS011;63149;48.086;-1.606;2023-04-25T06:05:09;12.88;;;8.48;;
39276;SDS011;63149;48.086;-1.606;2023-04-25T06:07:36;13.75;;;7.20;;
39276;SDS011;63149;48.086;-1.606;2023-04-25T06:10:05;9.18;;;5.95;;
39276;SDS011;63149;48.086;-1.606;2023-04-25T06:12:33;11.68;;;7.07;;
39276;SDS011;63149;48.086;-1.606;2023-04-25T06:15:00;9.35;;;6.53;;
39276;SDS011;63149;48.086;-1.606;2023-04-25T06:17:27;12.60;;;7.35;;
39276;SDS011;63149;48.086;-1.606;2023-04-25T06:19:55;10.52;;;6.93;;
39276;SDS011;63149;48.086;-1.606;2023-04-25T06:22:22;11.93;;;7.97;;
39276;SDS011;63149;48.086;-1.606;2023-04-25T06:24:50;12.05;;;6.80;;
39276;SDS011;63149;48.086;-1.606;2023-04-25T06:27:18;16.73;;;9.15;;
39276;SDS011;63149;48.086;-1.606;2023-04-25T06:29:46;11.15;;;7.57;;
39276;SDS011;63149;48.086;-1.606;2023-04-25T06:32:13;9.60;;;6.80;;
39276;SDS011;63149;48.086;-1.606;2023-04-25T06:34:40;13.88;;;6.95;;
39276;SDS011;63149;48.086;-1.606;2023-04-25T06:37:07;18.27;;;7.90;;
39276;SDS011;63149;48.086;-1.606;2023-04-25T06:39:34;19.77;;;7.65;;
39276;SDS011;63149;48.086;-1.606;2023-04-25T06:42:02;15.15;;;7.40;;
39276;SDS011;63149;48.086;-1.606;2023-04-25T06:44:30;20.02;;;9.85;;
39276;SDS011;63149;48.086;-1.606;2023-04-25T06:46:58;14.05;;;7.68;;
39276;SDS011;63149;48.086;-1.606;2023-04-25T06:49:25;22.75;;;10.82;;
39276;SDS011;63149;48.086;-1.606;2023-04-25T06:51:52;23.02;;;9.32;;
39276;SDS011;63149;48.086;-1.606;2023-04-25T06:54:19;26.65;;;10.02;;
39276;SDS011;63149;48.086;-1.606;2023-04-25T06:56:47;17.42;;;8.75;;
39276;SDS011;63149;48.086;-1.606;2023-04-25T06:59:14;15.13;;;8.63;;
39276;SDS011;63149;48.086;-1.606;2023-04-25T07:01:43;18.20;;;9.00;;
39276;SDS011;63149;48.086;-1.606;2023-04-25T07:04:10;21.90;;;9.60;;
39276;SDS011;63149;48.086;-1.606;2023-04-25T07:06:38;17.80;;;10.50;;
39276;SDS011;63149;48.086;-1.606;2023-04-25T07:09:07;22.77;;;10.15;;
39276;SDS011;63149;48.086;-1.606;2023-04-25T07:11:35;15.65;;;9.55;;
39276;SDS011;63149;48.086;-1.606;2023-04-25T07:14:02;23.25;;;10.65;;
39276;SDS011;63149;48.086;-1.606;2023-04-25T07:16:29;17.02;;;9.50;;
39276;SDS011;63149;48.086;-1.606;2023-04-25T07:18:58;19.70;;;10.43;;
39276;SDS011;63149;48.086;-1.606;2023-04-25T07:21:25;18.50;;;9.85;;
39276;SDS011;63149;48.086;-1.606;2023-04-25T07:23:52;21.17;;;10.35;;
39276;SDS011;63149;48.086;-1.606;2023-04-25T07:26:20;20.00;;;9.48;;
39276;SDS011;63149;48.086;-1.606;2023-04-25T07:28:47;21.88;;;11.20;;
39276;SDS011;63149;48.086;-1.606;2023-04-25T07:31:16;22.67;;;10.65;;
39276;SDS011;63149;48.086;-1.606;2023-04-25T07:33:43;20.42;;;9.55;;
39276;SDS011;63149;48.086;-1.606;2023-04-25T07:36:12;22.83;;;11.45;;
39276;SDS011;63149;48.086;-1.606;2023-04-25T07:38:40;21.25;;;10.02;;
39276;SDS011;63149;48.086;-1.606;2023-04-25T07:41:07;23.48;;;10.60;;
39276;SDS011;63149;48.086;-1.606;2023-04-25T07:43:34;22.05;;;9.18;;
39276;SDS011;63149;48.086;-1.606;2023-04-25T07:46:02;19.20;;;10.98;;
39276;SDS011;63149;48.086;-1.606;2023-04-25T07:48:29;21.60;;;10.68;;
39276;SDS011;63149;48.086;-1.606;2023-04-25T07:50:56;19.33;;;10.75;;
39276;SDS011;63149;48.086;-1.606;2023-04-25T07:53:25;21.00;;;11.15;;
39276;SDS011;63149;48.086;-1.606;2023-04-25T07:55:52;20.48;;;10.32;;
39276;SDS011;63149;48.086;-1.606;2023-04-25T07:58:19;23.63;;;11.10;;
39276;SDS011;63149;48.086;-1.606;2023-04-25T08:00:47;21.88;;;10.93;;
39276;SDS011;63149;48.086;-1.606;2023-04-25T08:03:14;20.55;;;9.52;;
39276;SDS011;63149;48.086;-1.606;2023-04-25T08:05:42;21.88;;;10.32;;
39276;SDS011;63149;48.086;-1.606;2023-04-25T08:08:10;18.05;;;10.57;;
39276;SDS011;63149;48.086;-1.606;2023-04-25T08:10:39;18.80;;;10.52;;
39276;SDS011;63149;48.086;-1.606;2023-04-25T08:13:06;16.95;;;9.65;;
39276;SDS011;63149;48.086;-1.606;2023-04-25T08:15:33;15.98;;;9.20;;
39276;SDS011;63149;48.086;-1.606;2023-04-25T08:18:01;15.30;;;9.25;;
39276;SDS011;63149;48.086;-1.606;2023-04-25T08:20:28;18.00;;;9.45;;
39276;SDS011;63149;48.086;-1.606;2023-04-25T08:22:55;21.13;;;9.77;;
39276;SDS011;63149;48.086;-1.606;2023-04-25T08:25:22;14.90;;;9.13;;
39276;SDS011;63149;48.086;-1.606;2023-04-25T08:27:51;16.45;;;9.57;;
39276;SDS011;63149;48.086;-1.606;2023-04-25T08:30:19;16.70;;;9.73;;
39276;SDS011;63149;48.086;-1.606;2023-04-25T08:32:46;18.67;;;9.02;;
39276;SDS011;63149;48.086;-1.606;2023-04-25T08:35:14;13.18;;;7.32;;
39276;SDS011;63149;48.086;-1.606;2023-04-25T08:37:42;14.50;;;7.18;;
39276;SDS011;63149;48.086;-1.606;2023-04-25T08:40:11;15.50;;;8.02;;
39276;SDS011;63149;48.086;-1.606;2023-04-25T08:42:38;13.43;;;8.70;;
39276;SDS011;63149;48.086;-1.606;2023-04-25T08:45:08;19.80;;;8.38;;
39276;SDS011;63149;48.086;-1.606;2023-04-25T08:47:35;14.07;;;7.15;;
39276;SDS011;63149;48.086;-1.606;2023-04-25T08:50:04;13.60;;;6.05;;
39276;SDS011;63149;48.086;-1.606;2023-04-25T08:52:35;18.63;;;6.90;;
39276;SDS011;63149;48.086;-1.606;2023-04-25T08:55:03;12.65;;;6.18;;
39276;SDS011;63149;48.086;-1.606;2023-04-25T08:57:31;14.13;;;6.38;;
39276;SDS011;63149;48.086;-1.606;2023-04-25T09:00:00;13.45;;;6.35;;
39276;SDS011;63149;48.086;-1.606;2023-04-25T09:02:29;12.32;;;7.25;;
39276;SDS011;63149;48.086;-1.606;2023-04-25T09:04:56;11.23;;;6.00;;
39276;SDS011;63149;48.086;-1.606;2023-04-25T09:07:24;13.43;;;7.10;;
39276;SDS011;63149;48.086;-1.606;2023-04-25T09:09:51;11.88;;;6.93;;
39276;SDS011;63149;48.086;-1.606;2023-04-25T09:12:19;17.08;;;6.72;;
39276;SDS011;63149;48.086;-1.606;2023-04-25T09:15:00;12.40;;;7.00;;
39276;SDS011;63149;48.086;-1.606;2023-04-25T09:17:30;17.92;;;7.30;;
39276;SDS011;63149;48.086;-1.606;2023-04-25T09:20:05;15.15;;;7.57;;
39276;SDS011;63149;48.086;-1.606;2023-04-25T09:22:33;14.30;;;6.60;;
39276;SDS011;63149;48.086;-1.606;2023-04-25T09:25:02;12.88;;;7.03;;
39276;SDS011;63149;48.086;-1.606;2023-04-25T09:27:29;17.45;;;7.15;;
39276;SDS011;63149;48.086;-1.606;2023-04-25T09:29:57;13.00;;;7.40;;
39276;SDS011;63149;48.086;-1.606;2023-04-25T09:32:25;11.02;;;6.80;;
39276;SDS011;63149;48.086;-1.606;2023-04-25T09:34:54;15.00;;;7.10;;
39276;SDS011;63149;48.086;-1.606;2023-04-25T09:37:23;8.10;;;5.82;;
39276;SDS011;63149;48.086;-1.606;2023-04-25T09:39:51;12.02;;;5.80;;
39276;SDS011;63149;48.086;-1.606;2023-04-25T09:42:20;10.23;;;5.80;;
39276;SDS011;63149;48.086;-1.606;2023-04-25T09:44:48;12.55;;;6.03;;
39276;SDS011;63149;48.086;-1.606;2023-04-25T09:47:18;12.52;;;6.53;;
39276;SDS011;63149;48.086;-1.606;2023-04-25T09:49:47;12.80;;;6.70;;
39276;SDS011;63149;48.086;-1.606;2023-04-25T09:52:16;19.13;;;8.30;;
39276;SDS011;63149;48.086;-1.606;2023-04-25T09:54:44;14.05;;;6.82;;
39276;SDS011;63149;48.086;-1.606;2023-04-25T09:57:12;11.27;;;6.32;;
39276;SDS011;63149;48.086;-1.606;2023-04-25T09:59:42;13.13;;;6.80;;
39276;SDS011;63149;48.086;-1.606;2023-04-25T10:02:09;12.02;;;6.25;;
39276;SDS011;63149;48.086;-1.606;2023-04-25T10:04:38;11.02;;;6.32;;
39276;SDS011;63149;48.086;-1.606;2023-04-25T10:07:05;9.48;;;5.72;;
39276;SDS011;63149;48.086;-1.606;2023-04-25T10:09:35;11.75;;;6.43;;
39276;SDS011;63149;48.086;-1.606;2023-04-25T10:12:04;9.85;;;5.97;;
39276;SDS011;63149;48.086;-1.606;2023-04-25T10:14:33;10.38;;;7.07;;
39276;SDS011;63149;48.086;-1.606;2023-04-25T10:17:00;10.40;;;6.53;;
39276;SDS011;63149;48.086;-1.606;2023-04-25T10:19:27;10.23;;;5.88;;
39276;SDS011;63149;48.086;-1.606;2023-04-25T10:21:56;13.15;;;6.47;;
39276;SDS011;63149;48.086;-1.606;2023-04-25T10:24:25;15.23;;;7.53;;
39276;SDS011;63149;48.086;-1.606;2023-04-25T10:26:54;13.68;;;7.70;;
39276;SDS011;63149;48.086;-1.606;2023-04-25T10:29:22;9.10;;;6.30;;
39276;SDS011;63149;48.086;-1.606;2023-04-25T10:31:50;8.60;;;5.70;;
39276;SDS011;63149;48.086;-1.606;2023-04-25T10:34:17;8.90;;;3.83;;
39276;SDS011;63149;48.086;-1.606;2023-04-25T10:36:49;9.40;;;4.80;;
39276;SDS011;63149;48.086;-1.606;2023-04-25T10:39:21;8.13;;;4.85;;
39276;SDS011;63149;48.086;-1.606;2023-04-25T10:44:17;7.18;;;4.80;;
39276;SDS011;63149;48.086;-1.606;2023-04-25T10:46:44;12.82;;;6.60;;
39276;SDS011;63149;48.086;-1.606;2023-04-25T10:49:27;7.82;;;4.63;;
39276;SDS011;63149;48.086;-1.606;2023-04-25T10:54:39;10.85;;;6.43;;
39276;SDS011;63149;48.086;-1.606;2023-04-25T10:57:07;11.57;;;5.35;;
39276;SDS011;63149;48.086;-1.606;2023-04-25T10:59:36;8.52;;;4.68;;
39276;SDS011;63149;48.086;-1.606;2023-04-25T11:02:11;5.47;;;4.20;;
39276;SDS011;63149;48.086;-1.606;2023-04-25T11:04:39;4.55;;;3.40;;
39276;SDS011;63149;48.086;-1.606;2023-04-25T11:07:09;9.82;;;5.50;;
39276;SDS011;63149;48.086;-1.606;2023-04-25T11:09:38;7.77;;;4.83;;
39276;SDS011;63149;48.086;-1.606;2023-04-25T11:12:07;8.45;;;5.18;;
39276;SDS011;63149;48.086;-1.606;2023-04-25T11:14:37;4.97;;;4.10;;
39276;SDS011;63149;48.086;-1.606;2023-04-25T11:17:05;7.75;;;5.03;;
39276;SDS011;63149;48.086;-1.606;2023-04-25T11:19:32;7.13;;;4.80;;
39276;SDS011;63149;48.086;-1.606;2023-04-25T11:22:00;8.13;;;5.38;;
39276;SDS011;63149;48.086;-1.606;2023-04-25T11:24:27;7.75;;;4.80;;
39276;SDS011;63149;48.086;-1.606;2023-04-25T11:26:56;9.23;;;4.70;;
39276;SDS011;63149;48.086;-1.606;2023-04-25T11:29:23;8.05;;;4.60;;
39276;SDS011;63149;48.086;-1.606;2023-04-25T11:31:52;6.78;;;5.13;;
39276;SDS011;63149;48.086;-1.606;2023-04-25T11:34:21;9.05;;;6.13;;
39276;SDS011;63149;48.086;-1.606;2023-04-25T11:36:48;6.85;;;4.10;;
39276;SDS011;63149;48.086;-1.606;2023-04-25T11:39:15;8.05;;;4.35;;
39276;SDS011;63149;48.086;-1.606;2023-04-25T11:41:42;6.43;;;4.30;;
39276;SDS011;63149;48.086;-1.606;2023-04-25T11:44:10;4.22;;;3.72;;
39276;SDS011;63149;48.086;-1.606;2023-04-25T11:46:37;8.32;;;3.95;;
39276;SDS011;63149;48.086;-1.606;2023-04-25T11:49:05;4.93;;;3.58;;
39276;SDS011;63149;48.086;-1.606;2023-04-25T11:51:37;6.28;;;3.30;;
39276;SDS011;63149;48.086;-1.606;2023-04-25T11:54:05;7.05;;;3.72;;
39276;SDS011;63149;48.086;-1.606;2023-04-25T11:56:33;7.57;;;4.30;;
39276;SDS011;63149;48.086;-1.606;2023-04-25T11:59:00;8.00;;;4.68;;
39276;SDS011;63149;48.086;-1.606;2023-04-25T12:01:28;6.90;;;4.68;;
39276;SDS011;63149;48.086;-1.606;2023-04-25T12:03:56;7.55;;;4.50;;
39276;SDS011;63149;48.086;-1.606;2023-04-25T12:06:27;8.95;;;4.63;;
39276;SDS011;63149;48.086;-1.606;2023-04-25T12:09:01;5.28;;;4.43;;
39276;SDS011;63149;48.086;-1.606;2023-04-25T12:11:29;7.93;;;4.55;;
39276;SDS011;63149;48.086;-1.606;2023-04-25T12:14:01;5.70;;;4.13;;
39276;SDS011;63149;48.086;-1.606;2023-04-25T12:16:29;6.07;;;4.22;;
39276;SDS011;63149;48.086;-1.606;2023-04-25T12:18:57;9.60;;;4.35;;
39276;SDS011;63149;48.086;-1.606;2023-04-25T12:21:29;8.52;;;4.57;;
39276;SDS011;63149;48.086;-1.606;2023-04-25T12:24:07;6.35;;;4.85;;
39276;SDS011;63149;48.086;-1.606;2023-04-25T12:26:45;5.75;;;4.13;;
39276;SDS011;63149;48.086;-1.606;2023-04-25T12:29:15;8.18;;;5.07;;
39276;SDS011;63149;48.086;-1.606;2023-04-25T12:31:42;8.95;;;4.88;;
39276;SDS011;63149;48.086;-1.606;2023-04-25T12:34:09;7.47;;;5.07;;
39276;SDS011;63149;48.086;-1.606;2023-04-25T12:36:38;8.70;;;5.28;;
39276;SDS011;63149;48.086;-1.606;2023-04-25T12:39:06;7.70;;;5.20;;
39276;SDS011;63149;48.086;-1.606;2023-04-25T12:41:33;8.70;;;4.90;;
39276;SDS011;63149;48.086;-1.606;2023-04-25T12:44:00;6.20;;;4.70;;
39276;SDS011;63149;48.086;-1.606;2023-04-25T12:46:27;7.82;;;4.75;;
39276;SDS011;63149;48.086;-1.606;2023-04-25T12:48:55;9.63;;;5.40;;
39276;SDS011;63149;48.086;-1.606;2023-04-25T12:51:22;9.65;;;5.15;;
39276;SDS011;63149;48.086;-1.606;2023-04-25T12:53:51;5.88;;;4.70;;
39276;SDS011;63149;48.086;-1.606;2023-04-25T12:56:19;6.55;;;4.45;;
39276;SDS011;63149;48.086;-1.606;2023-04-25T12:58:46;6.57;;;5.63;;
39276;SDS011;63149;48.086;-1.606;2023-04-25T13:01:14;6.25;;;4.80;;
39276;SDS011;63149;48.086;-1.606;2023-04-25T13:03:41;6.32;;;4.97;;
39276;SDS011;63149;48.086;-1.606;2023-04-25T13:06:08;8.55;;;5.32;;
39276;SDS011;63149;48.086;-1.606;2023-04-25T13:08:36;5.93;;;4.32;;
39276;SDS011;63149;48.086;-1.606;2023-04-25T13:11:05;10.15;;;4.80;;
39276;SDS011;63149;48.086;-1.606;2023-04-25T13:13:32;11.45;;;5.20;;
39276;SDS011;63149;48.086;-1.606;2023-04-25T13:16:00;7.70;;;4.82;;
39276;SDS011;63149;48.086;-1.606;2023-04-25T13:18:27;6.03;;;4.75;;
39276;SDS011;63149;48.086;-1.606;2023-04-25T13:20:55;7.03;;;3.90;;
39276;SDS011;63149;48.086;-1.606;2023-04-25T13:23:22;8.27;;;4.75;;
39276;SDS011;63149;48.086;-1.606;2023-04-25T13:25:50;6.72;;;4.68;;
39276;SDS011;63149;48.086;-1.606;2023-04-25T13:28:18;10.55;;;4.82;;
39276;SDS011;63149;48.086;-1.606;2023-04-25T13:30:46;6.10;;;4.28;;
39276;SDS011;63149;48.086;-1.606;2023-04-25T13:33:14;6.28;;;3.85;;
39276;SDS011;63149;48.086;-1.606;2023-04-25T13:35:41;8.30;;;4.50;;
39276;SDS011;63149;48.086;-1.606;2023-04-25T13:38:11;4.73;;;3.73;;
39276;SDS011;63149;48.086;-1.606;2023-04-25T13:40:39;7.13;;;3.85;;
39276;SDS011;63149;48.086;-1.606;2023-04-25T13:43:06;4.78;;;4.03;;
39276;SDS011;63149;48.086;-1.606;2023-04-25T13:45:35;6.32;;;4.82;;
39276;SDS011;63149;48.086;-1.606;2023-04-25T13:48:02;5.65;;;4.50;;
39276;SDS011;63149;48.086;-1.606;2023-04-25T13:50:29;6.55;;;4.25;;
39276;SDS011;63149;48.086;-1.606;2023-04-25T13:52:57;6.63;;;4.07;;
39276;SDS011;63149;48.086;-1.606;2023-04-25T13:55:24;7.32;;;3.55;;
39276;SDS011;63149;48.086;-1.606;2023-04-25T13:57:51;7.75;;;3.92;;
39276;SDS011;63149;48.086;-1.606;2023-04-25T14:00:18;6.60;;;4.80;;
39276;SDS011;63149;48.086;-1.606;2023-04-25T14:02:47;7.80;;;4.70;;
39276;SDS011;63149;48.086;-1.606;2023-04-25T14:05:14;6.05;;;4.65;;
39276;SDS011;63149;48.086;-1.606;2023-04-25T14:07:42;8.73;;;4.35;;
39276;SDS011;63149;48.086;-1.606;2023-04-25T14:10:09;7.07;;;4.40;;
39276;SDS011;63149;48.086;-1.606;2023-04-25T14:12:36;8.98;;;4.40;;
39276;SDS011;63149;48.086;-1.606;2023-04-25T14:15:04;10.55;;;4.63;;
39276;SDS011;63149;48.086;-1.606;2023-04-25T14:17:32;7.32;;;4.40;;
39276;SDS011;63149;48.086;-1.606;2023-04-25T14:20:00;5.20;;;3.97;;
39276;SDS011;63149;48.086;-1.606;2023-04-25T14:22:30;6.30;;;4.60;;
39276;SDS011;63149;48.086;-1.606;2023-04-25T14:24:58;9.02;;;4.70;;
39276;SDS011;63149;48.086;-1.606;2023-04-25T14:27:25;6.93;;;5.00;;
39276;SDS011;63149;48.086;-1.606;2023-04-25T14:29:53;6.10;;;4.35;;
39276;SDS011;63149;48.086;-1.606;2023-04-25T14:32:20;8.20;;;3.92;;
39276;SDS011;63149;48.086;-1.606;2023-04-25T14:34:47;6.05;;;4.13;;
39276;SDS011;63149;48.086;-1.606;2023-04-25T14:37:16;5.75;;;3.38;;
39276;SDS011;63149;48.086;-1.606;2023-04-25T14:39:43;4.57;;;3.85;;
39276;SDS011;63149;48.086;-1.606;2023-04-25T14:42:10;6.40;;;4.13;;
39276;SDS011;63149;48.086;-1.606;2023-04-25T14:44:38;5.07;;;3.88;;
39276;SDS011;63149;48.086;-1.606;2023-04-25T14:47:05;6.40;;;3.80;;
39276;SDS011;63149;48.086;-1.606;2023-04-25T14:49:32;5.03;;;3.72;;
39276;SDS011;63149;48.086;-1.606;2023-04-25T14:51:59;7.97;;;3.67;;
39276;SDS011;63149;48.086;-1.606;2023-04-25T14:54:28;7.05;;;4.05;;
39276;SDS011;63149;48.086;-1.606;2023-04-25T14:56:56;4.00;;;3.60;;
39276;SDS011;63149;48.086;-1.606;2023-04-25T14:59:23;8.20;;;5.40;;
39276;SDS011;63149;48.086;-1.606;2023-04-25T15:01:50;7.63;;;3.85;;
39276;SDS011;63149;48.086;-1.606;2023-04-25T15:04:18;6.80;;;3.70;;
39276;SDS011;63149;48.086;-1.606;2023-04-25T15:06:45;7.80;;;3.83;;
39276;SDS011;63149;48.086;-1.606;2023-04-25T15:09:12;5.38;;;3.35;;
39276;SDS011;63149;48.086;-1.606;2023-04-25T15:11:42;4.40;;;3.33;;
39276;SDS011;63149;48.086;-1.606;2023-04-25T15:14:10;6.40;;;4.32;;
39276;SDS011;63149;48.086;-1.606;2023-04-25T15:16:37;6.88;;;4.07;;
39276;SDS011;63149;48.086;-1.606;2023-04-25T15:19:04;5.22;;;3.60;;
39276;SDS011;63149;48.086;-1.606;2023-04-25T15:21:32;12.52;;;5.82;;
39276;SDS011;63149;48.086;-1.606;2023-04-25T15:23:59;8.40;;;4.47;;
39276;SDS011;63149;48.086;-1.606;2023-04-25T15:26:27;7.10;;;4.35;;
39276;SDS011;63149;48.086;-1.606;2023-04-25T15:28:56;7.85;;;4.68;;
39276;SDS011;63149;48.086;-1.606;2023-04-25T15:31:23;6.57;;;4.13;;
39276;SDS011;63149;48.086;-1.606;2023-04-25T15:33:51;6.53;;;4.57;;
39276;SDS011;63149;48.086;-1.606;2023-04-25T15:36:18;6.38;;;4.25;;
39276;SDS011;63149;48.086;-1.606;2023-04-25T15:38:46;6.28;;;4.15;;
39276;SDS011;63149;48.086;-1.606;2023-04-25T15:41:13;6.65;;;4.15;;
39276;SDS011;63149;48.086;-1.606;2023-04-25T15:43:41;14.25;;;4.80;;
39276;SDS011;63149;48.086;-1.606;2023-04-25T15:46:09;7.95;;;4.30;;
39276;SDS011;63149;48.086;-1.606;2023-04-25T15:48:36;5.53;;;4.38;;
39276;SDS011;63149;48.086;-1.606;2023-04-25T15:51:04;9.50;;;4.93;;
39276;SDS011;63149;48.086;-1.606;2023-04-25T15:53:31;9.50;;;4.15;;
39276;SDS011;63149;48.086;-1.606;2023-04-25T15:55:58;8.38;;;4.30;;
39276;SDS011;63149;48.086;-1.606;2023-04-25T15:58:25;6.88;;;5.07;;
39276;SDS011;63149;48.086;-1.606;2023-04-25T16:00:53;7.60;;;3.95;;
39276;SDS011;63149;48.086;-1.606;2023-04-25T16:03:22;5.68;;;3.97;;
39276;SDS011;63149;48.086;-1.606;2023-04-25T16:05:49;5.88;;;4.20;;
39276;SDS011;63149;48.086;-1.606;2023-04-25T16:08:17;5.93;;;4.18;;
39276;SDS011;63149;48.086;-1.606;2023-04-25T16:10:44;10.27;;;4.55;;
39276;SDS011;63149;48.086;-1.606;2023-04-25T16:13:12;4.72;;;3.40;;
39276;SDS011;63149;48.086;-1.606;2023-04-25T16:15:39;8.10;;;4.60;;
39276;SDS011;63149;48.086;-1.606;2023-04-25T16:18:07;6.07;;;3.95;;
39276;SDS011;63149;48.086;-1.606;2023-04-25T16:20:35;4.95;;;3.85;;
39276;SDS011;63149;48.086;-1.606;2023-04-25T16:23:03;7.95;;;4.22;;
39276;SDS011;63149;48.086;-1.606;2023-04-25T16:25:30;6.97;;;4.15;;
39276;SDS011;63149;48.086;-1.606;2023-04-25T16:27:57;4.93;;;3.80;;
39276;SDS011;63149;48.086;-1.606;2023-04-25T16:30:24;9.70;;;5.00;;
39276;SDS011;63149;48.086;-1.606;2023-04-25T16:32:52;5.63;;;4.10;;
39276;SDS011;63149;48.086;-1.606;2023-04-25T16:35:21;6.88;;;4.15;;
39276;SDS011;63149;48.086;-1.606;2023-04-25T16:37:49;8.10;;;3.70;;
39276;SDS011;63149;48.086;-1.606;2023-04-25T16:40:17;5.60;;;3.97;;
39276;SDS011;63149;48.086;-1.606;2023-04-25T16:42:45;6.65;;;3.88;;
39276;SDS011;63149;48.086;-1.606;2023-04-25T16:45:12;6.68;;;4.20;;
39276;SDS011;63149;48.086;-1.606;2023-04-25T16:47:41;5.47;;;3.60;;
39276;SDS011;63149;48.086;-1.606;2023-04-25T16:50:09;7.25;;;3.78;;
39276;SDS011;63149;48.086;-1.606;2023-04-25T16:52:36;7.03;;;3.63;;
39276;SDS011;63149;48.086;-1.606;2023-04-25T16:55:05;6.93;;;3.92;;
39276;SDS011;63149;48.086;-1.606;2023-04-25T16:57:33;5.18;;;3.97;;
39276;SDS011;63149;48.086;-1.606;2023-04-25T17:00:00;5.97;;;3.78;;
39276;SDS011;63149;48.086;-1.606;2023-04-25T17:02:29;5.60;;;3.10;;
39276;SDS011;63149;48.086;-1.606;2023-04-25T17:04:56;6.60;;;3.40;;
39276;SDS011;63149;48.086;-1.606;2023-04-25T17:07:23;5.07;;;3.30;;
39276;SDS011;63149;48.086;-1.606;2023-04-25T17:09:50;4.57;;;2.90;;
39276;SDS011;63149;48.086;-1.606;2023-04-25T17:12:19;7.63;;;3.30;;
39276;SDS011;63149;48.086;-1.606;2023-04-25T17:14:47;5.72;;;3.35;;
39276;SDS011;63149;48.086;-1.606;2023-04-25T17:17:15;5.57;;;2.78;;
39276;SDS011;63149;48.086;-1.606;2023-04-25T17:19:43;5.28;;;3.80;;
39276;SDS011;63149;48.086;-1.606;2023-04-25T17:22:11;3.88;;;2.92;;
39276;SDS011;63149;48.086;-1.606;2023-04-25T17:24:38;8.40;;;4.35;;
39276;SDS011;63149;48.086;-1.606;2023-04-25T17:27:05;5.78;;;3.15;;
39276;SDS011;63149;48.086;-1.606;2023-04-25T17:29:34;5.38;;;3.05;;
39276;SDS011;63149;48.086;-1.606;2023-04-25T17:32:01;7.03;;;3.47;;
39276;SDS011;63149;48.086;-1.606;2023-04-25T17:34:29;5.15;;;3.17;;
39276;SDS011;63149;48.086;-1.606;2023-04-25T17:36:56;4.72;;;3.10;;
39276;SDS011;63149;48.086;-1.606;2023-04-25T17:39:24;5.43;;;3.67;;
39276;SDS011;63149;48.086;-1.606;2023-04-25T17:41:51;5.43;;;3.25;;
39276;SDS011;63149;48.086;-1.606;2023-04-25T17:44:19;4.25;;;3.22;;
39276;SDS011;63149;48.086;-1.606;2023-04-25T17:46:47;4.72;;;3.70;;
39276;SDS011;63149;48.086;-1.606;2023-04-25T17:49:15;6.28;;;3.20;;
39276;SDS011;63149;48.086;-1.606;2023-04-25T17:51:42;7.53;;;3.60;;
39276;SDS011;63149;48.086;-1.606;2023-04-25T17:54:09;7.93;;;4.07;;
39276;SDS011;63149;48.086;-1.606;2023-04-25T17:56:37;10.95;;;6.30;;
39276;SDS011;63149;48.086;-1.606;2023-04-25T17:59:05;8.70;;;5.15;;
39276;SDS011;63149;48.086;-1.606;2023-04-25T18:01:32;12.30;;;7.85;;
39276;SDS011;63149;48.086;-1.606;2023-04-25T18:04:02;12.55;;;8.43;;
39276;SDS011;63149;48.086;-1.606;2023-04-25T18:06:29;6.10;;;3.75;;
39276;SDS011;63149;48.086;-1.606;2023-04-25T18:08:57;4.50;;;3.80;;
39276;SDS011;63149;48.086;-1.606;2023-04-25T18:11:26;5.40;;;3.67;;
39276;SDS011;63149;48.086;-1.606;2023-04-25T18:13:53;5.28;;;3.60;;
39276;SDS011;63149;48.086;-1.606;2023-04-25T18:16:21;5.32;;;3.75;;
39276;SDS011;63149;48.086;-1.606;2023-04-25T18:18:48;4.80;;;3.35;;
39276;SDS011;63149;48.086;-1.606;2023-04-25T18:21:18;4.20;;;3.60;;
39276;SDS011;63149;48.086;-1.606;2023-04-25T18:23:46;7.28;;;3.58;;
39276;SDS011;63149;48.086;-1.606;2023-04-25T18:26:13;7.15;;;3.92;;
39276;SDS011;63149;48.086;-1.606;2023-04-25T18:28:41;7.93;;;4.45;;
39276;SDS011;63149;48.086;-1.606;2023-04-25T18:31:08;12.63;;;8.32;;
39276;SDS011;63149;48.086;-1.606;2023-04-25T18:33:35;10.65;;;7.35;;
39276;SDS011;63149;48.086;-1.606;2023-04-25T18:36:03;13.23;;;8.52;;
39276;SDS011;63149;48.086;-1.606;2023-04-25T18:38:31;8.35;;;5.10;;
39276;SDS011;63149;48.086;-1.606;2023-04-25T18:40:59;8.18;;;4.40;;
39276;SDS011;63149;48.086;-1.606;2023-04-25T18:43:26;9.10;;;4.72;;
39276;SDS011;63149;48.086;-1.606;2023-04-25T18:45:53;6.40;;;3.80;;
39276;SDS011;63149;48.086;-1.606;2023-04-25T18:48:20;11.25;;;5.53;;
39276;SDS011;63149;48.086;-1.606;2023-04-25T18:50:48;9.25;;;5.20;;
39276;SDS011;63149;48.086;-1.606;2023-04-25T18:53:15;9.63;;;5.55;;
39276;SDS011;63149;48.086;-1.606;2023-04-25T18:55:44;7.72;;;4.28;;
39276;SDS011;63149;48.086;-1.606;2023-04-25T18:58:11;9.07;;;5.35;;
39276;SDS011;63149;48.086;-1.606;2023-04-25T19:00:38;12.40;;;5.25;;
39276;SDS011;63149;48.086;-1.606;2023-04-25T19:03:06;8.15;;;4.40;;
39276;SDS011;63149;48.086;-1.606;2023-04-25T19:05:33;8.70;;;4.30;;
39276;SDS011;63149;48.086;-1.606;2023-04-25T19:08:01;8.88;;;3.85;;
39276;SDS011;63149;48.086;-1.606;2023-04-25T19:10:28;7.15;;;4.38;;
39276;SDS011;63149;48.086;-1.606;2023-04-25T19:12:56;8.85;;;5.40;;
39276;SDS011;63149;48.086;-1.606;2023-04-25T19:15:24;6.53;;;4.80;;
39276;SDS011;63149;48.086;-1.606;2023-04-25T19:17:52;6.15;;;5.00;;
39276;SDS011;63149;48.086;-1.606;2023-04-25T19:20:19;6.82;;;4.18;;
39276;SDS011;63149;48.086;-1.606;2023-04-25T19:22:47;7.53;;;4.32;;
39276;SDS011;63149;48.086;-1.606;2023-04-25T19:25:14;6.05;;;4.78;;
39276;SDS011;63149;48.086;-1.606;2023-04-25T19:27:41;9.73;;;4.78;;
39276;SDS011;63149;48.086;-1.606;2023-04-25T19:30:11;8.50;;;4.78;;
39276;SDS011;63149;48.086;-1.606;2023-04-25T19:32:38;10.07;;;5.47;;
39276;SDS011;63149;48.086;-1.606;2023-04-25T19:35:06;8.15;;;4.85;;
39276;SDS011;63149;48.086;-1.606;2023-04-25T19:37:34;5.03;;;4.53;;